sensor_id;sensor_type;location;lat;lon;timestamp;temperature;humidity
13521;DHT22;6832;51.186;3.236;2023-06-24T00:01:15;28.70;49.30
13521;DHT22;6832;51.186;3.236;2023-06-24T00:03:42;28.70;49.30
13521;DHT22;6832;51.186;3.236;2023-06-24T00:06:13;28.70;49.40
13521;DHT22;6832;51.186;3.236;2023-06-24T00:08:43;28.60;49.30
13521;DHT22;6832;51.186;3.236;2023-06-24T00:11:12;28.70;49.30
13521;DHT22;6832;51.186;3.236;2023-06-24T00:13:39;28.60;49.30
13521;DHT22;6832;51.186;3.236;2023-06-24T00:16:06;28.60;49.30
13521;DHT22;6832;51.186;3.236;2023-06-24T00:18:33;28.60;50.00
13521;DHT22;6832;51.186;3.236;2023-06-24T00:21:00;28.50;49.20
13521;DHT22;6832;51.186;3.236;2023-06-24T00:23:28;28.60;49.30
13521;DHT22;6832;51.186;3.236;2023-06-24T00:25:57;28.60;49.30
13521;DHT22;6832;51.186;3.236;2023-06-24T00:28:26;28.60;49.30
13521;DHT22;6832;51.186;3.236;2023-06-24T00:30:53;28.50;49.20
13521;DHT22;6832;51.186;3.236;2023-06-24T00:33:19;28.60;49.30
13521;DHT22;6832;51.186;3.236;2023-06-24T00:35:47;28.50;49.20
13521;DHT22;6832;51.186;3.236;2023-06-24T00:38:14;28.50;49.20
13521;DHT22;6832;51.186;3.236;2023-06-24T00:40:41;28.50;49.20
13521;DHT22;6832;51.186;3.236;2023-06-24T00:43:09;28.50;49.20
13521;DHT22;6832;51.186;3.236;2023-06-24T00:45:38;28.50;49.20
13521;DHT22;6832;51.186;3.236;2023-06-24T00:48:06;28.50;49.10
13521;DHT22;6832;51.186;3.236;2023-06-24T00:50:33;28.50;49.20
13521;DHT22;6832;51.186;3.236;2023-06-24T00:53:02;28.50;49.20
13521;DHT22;6832;51.186;3.236;2023-06-24T00:55:29;28.50;49.20
13521;DHT22;6832;51.186;3.236;2023-06-24T00:57:56;28.40;49.10
13521;DHT22;6832;51.186;3.236;2023-06-24T01:00:25;28.40;49.10
13521;DHT22;6832;51.186;3.236;2023-06-24T01:02:53;28.40;49.10
13521;DHT22;6832;51.186;3.236;2023-06-24T01:05:21;28.40;49.00
13521;DHT22;6832;51.186;3.236;2023-06-24T01:07:49;28.40;49.10
13521;DHT22;6832;51.186;3.236;2023-06-24T01:10:20;28.30;49.00
13521;DHT22;6832;51.186;3.236;2023-06-24T01:12:48;28.40;49.10
13521;DHT22;6832;51.186;3.236;2023-06-24T01:15:15;28.40;49.10
13521;DHT22;6832;51.186;3.236;2023-06-24T01:17:47;28.30;49.00
13521;DHT22;6832;51.186;3.236;2023-06-24T01:20:20;28.30;48.90
13521;DHT22;6832;51.186;3.236;2023-06-24T01:23:19;28.30;48.90
13521;DHT22;6832;51.186;3.236;2023-06-24T01:31:46;28.30;48.90
13521;DHT22;6832;51.186;3.236;2023-06-24T01:34:20;28.30;48.90
13521;DHT22;6832;51.186;3.236;2023-06-24T01:36:55;28.20;48.90
13521;DHT22;6832;51.186;3.236;2023-06-24T01:39:24;28.20;48.90
13521;DHT22;6832;51.186;3.236;2023-06-24T01:41:56;28.20;49.00
13521;DHT22;6832;51.186;3.236;2023-06-24T01:44:27;28.10;48.90
13521;DHT22;6832;51.186;3.236;2023-06-24T01:46:57;28.10;48.90
13521;DHT22;6832;51.186;3.236;2023-06-24T01:49:28;28.10;49.00
13521;DHT22;6832;51.186;3.236;2023-06-24T01:51:57;28.10;48.90
13521;DHT22;6832;51.186;3.236;2023-06-24T01:54:26;28.10;48.90
13521;DHT22;6832;51.186;3.236;2023-06-24T01:56:56;28.10;48.90
13521;DHT22;6832;51.186;3.236;2023-06-24T01:59:25;28.10;48.90
13521;DHT22;6832;51.186;3.236;2023-06-24T02:01:55;28.10;48.90
13521;DHT22;6832;51.186;3.236;2023-06-24T02:04:24;28.10;48.90
13521;DHT22;6832;51.186;3.236;2023-06-24T02:06:58;28.00;48.90
13521;DHT22;6832;51.186;3.236;2023-06-24T02:09:26;28.00;48.90
13521;DHT22;6832;51.186;3.236;2023-06-24T02:11:55;28.00;48.90
13521;DHT22;6832;51.186;3.236;2023-06-24T02:14:22;28.00;48.80
13521;DHT22;6832;51.186;3.236;2023-06-24T02:16:51;28.00;49.00
13521;DHT22;6832;51.186;3.236;2023-06-24T02:19:24;28.00;48.80
13521;DHT22;6832;51.186;3.236;2023-06-24T02:21:55;28.00;48.80
13521;DHT22;6832;51.186;3.236;2023-06-24T02:24:23;27.90;48.80
13521;DHT22;6832;51.186;3.236;2023-06-24T02:26:53;27.90;48.80
13521;DHT22;6832;51.186;3.236;2023-06-24T02:29:21;27.90;48.80
13521;DHT22;6832;51.186;3.236;2023-06-24T02:31:49;27.90;48.80
13521;DHT22;6832;51.186;3.236;2023-06-24T02:34:16;27.90;48.80
13521;DHT22;6832;51.186;3.236;2023-06-24T02:36:44;27.90;48.80
13521;DHT22;6832;51.186;3.236;2023-06-24T02:39:11;27.90;48.80
13521;DHT22;6832;51.186;3.236;2023-06-24T02:41:38;27.80;48.80
13521;DHT22;6832;51.186;3.236;2023-06-24T02:44:05;27.80;48.80
13521;DHT22;6832;51.186;3.236;2023-06-24T02:46:33;27.80;48.80
13521;DHT22;6832;51.186;3.236;2023-06-24T02:49:01;27.80;48.80
13521;DHT22;6832;51.186;3.236;2023-06-24T02:51:29;27.80;48.80
13521;DHT22;6832;51.186;3.236;2023-06-24T02:53:58;27.80;48.80
13521;DHT22;6832;51.186;3.236;2023-06-24T02:56:26;27.80;48.80
13521;DHT22;6832;51.186;3.236;2023-06-24T02:58:54;27.80;48.80
13521;DHT22;6832;51.186;3.236;2023-06-24T03:01:21;27.80;48.80
13521;DHT22;6832;51.186;3.236;2023-06-24T03:03:52;27.80;48.80
13521;DHT22;6832;51.186;3.236;2023-06-24T03:06:21;27.70;48.70
13521;DHT22;6832;51.186;3.236;2023-06-24T03:08:48;27.70;48.70
13521;DHT22;6832;51.186;3.236;2023-06-24T03:11:16;27.70;48.70
13521;DHT22;6832;51.186;3.236;2023-06-24T03:13:43;27.70;48.70
13521;DHT22;6832;51.186;3.236;2023-06-24T03:16:11;27.70;48.70
13521;DHT22;6832;51.186;3.236;2023-06-24T03:18:40;27.60;48.70
13521;DHT22;6832;51.186;3.236;2023-06-24T03:21:07;27.60;48.70
13521;DHT22;6832;51.186;3.236;2023-06-24T03:23:34;27.60;48.70
13521;DHT22;6832;51.186;3.236;2023-06-24T03:26:02;27.60;48.70
13521;DHT22;6832;51.186;3.236;2023-06-24T03:28:31;27.60;48.70
13521;DHT22;6832;51.186;3.236;2023-06-24T03:30:58;27.50;48.60
13521;DHT22;6832;51.186;3.236;2023-06-24T03:33:25;27.60;48.70
13521;DHT22;6832;51.186;3.236;2023-06-24T03:35:52;27.50;48.70
13521;DHT22;6832;51.186;3.236;2023-06-24T03:38:19;27.50;48.60
13521;DHT22;6832;51.186;3.236;2023-06-24T03:40:46;27.50;48.70
13521;DHT22;6832;51.186;3.236;2023-06-24T03:43:13;27.50;48.70
13521;DHT22;6832;51.186;3.236;2023-06-24T03:45:42;27.50;48.70
13521;DHT22;6832;51.186;3.236;2023-06-24T03:48:08;27.50;48.70
13521;DHT22;6832;51.186;3.236;2023-06-24T03:50:35;27.50;48.70
13521;DHT22;6832;51.186;3.236;2023-06-24T03:53:03;27.40;48.70
13521;DHT22;6832;51.186;3.236;2023-06-24T03:55:30;27.40;48.80
13521;DHT22;6832;51.186;3.236;2023-06-24T03:57:57;27.40;48.70
13521;DHT22;6832;51.186;3.236;2023-06-24T04:00:24;27.40;48.70
13521;DHT22;6832;51.186;3.236;2023-06-24T04:02:52;27.40;48.70
13521;DHT22;6832;51.186;3.236;2023-06-24T04:05:20;27.40;48.70
13521;DHT22;6832;51.186;3.236;2023-06-24T04:07:47;27.40;48.70
13521;DHT22;6832;51.186;3.236;2023-06-24T04:10:17;27.30;48.70
13521;DHT22;6832;51.186;3.236;2023-06-24T04:12:44;27.30;48.60
13521;DHT22;6832;51.186;3.236;2023-06-24T04:15:11;27.30;48.60
13521;DHT22;6832;51.186;3.236;2023-06-24T04:17:38;27.30;48.70
13521;DHT22;6832;51.186;3.236;2023-06-24T04:20:07;27.30;48.70
13521;DHT22;6832;51.186;3.236;2023-06-24T04:22:35;27.30;48.70
13521;DHT22;6832;51.186;3.236;2023-06-24T04:25:03;27.30;48.80
13521;DHT22;6832;51.186;3.236;2023-06-24T04:27:31;27.30;48.80
13521;DHT22;6832;51.186;3.236;2023-06-24T04:29:58;27.30;48.80
13521;DHT22;6832;51.186;3.236;2023-06-24T04:32:25;27.20;48.80
13521;DHT22;6832;51.186;3.236;2023-06-24T04:34:52;27.20;48.80
13521;DHT22;6832;51.186;3.236;2023-06-24T04:37:21;27.20;48.80
13521;DHT22;6832;51.186;3.236;2023-06-24T04:39:48;27.20;48.80
13521;DHT22;6832;51.186;3.236;2023-06-24T04:42:15;27.20;48.80
13521;DHT22;6832;51.186;3.236;2023-06-24T04:44:42;27.20;48.80
13521;DHT22;6832;51.186;3.236;2023-06-24T04:47:09;27.20;48.80
13521;DHT22;6832;51.186;3.236;2023-06-24T04:49:36;27.20;48.90
13521;DHT22;6832;51.186;3.236;2023-06-24T04:52:03;27.20;48.90
13521;DHT22;6832;51.186;3.236;2023-06-24T04:54:33;27.10;48.80
13521;DHT22;6832;51.186;3.236;2023-06-24T04:57:00;27.10;48.90
13521;DHT22;6832;51.186;3.236;2023-06-24T04:59:27;27.10;48.90
13521;DHT22;6832;51.186;3.236;2023-06-24T05:01:54;27.10;48.90
13521;DHT22;6832;51.186;3.236;2023-06-24T05:04:21;27.10;49.50
13521;DHT22;6832;51.186;3.236;2023-06-24T05:06:48;27.10;48.90
13521;DHT22;6832;51.186;3.236;2023-06-24T05:09:15;27.10;49.00
13521;DHT22;6832;51.186;3.236;2023-06-24T05:11:43;27.10;48.90
13521;DHT22;6832;51.186;3.236;2023-06-24T05:14:10;27.10;48.90
13521;DHT22;6832;51.186;3.236;2023-06-24T05:16:37;27.10;49.00
13521;DHT22;6832;51.186;3.236;2023-06-24T05:19:03;27.10;49.00
13521;DHT22;6832;51.186;3.236;2023-06-24T05:21:30;27.10;49.00
13521;DHT22;6832;51.186;3.236;2023-06-24T05:23:57;27.10;49.10
13521;DHT22;6832;51.186;3.236;2023-06-24T05:26:24;27.10;49.10
13521;DHT22;6832;51.186;3.236;2023-06-24T05:28:53;27.10;49.10
13521;DHT22;6832;51.186;3.236;2023-06-24T05:31:19;27.10;49.10
13521;DHT22;6832;51.186;3.236;2023-06-24T05:33:46;27.10;49.10
13521;DHT22;6832;51.186;3.236;2023-06-24T05:36:13;27.10;49.10
13521;DHT22;6832;51.186;3.236;2023-06-24T05:38:40;27.10;49.20
13521;DHT22;6832;51.186;3.236;2023-06-24T05:41:07;27.10;49.20
13521;DHT22;6832;51.186;3.236;2023-06-24T05:43:34;27.10;49.30
13521;DHT22;6832;51.186;3.236;2023-06-24T05:46:02;27.10;49.30
13521;DHT22;6832;51.186;3.236;2023-06-24T05:48:29;27.10;49.30
13521;DHT22;6832;51.186;3.236;2023-06-24T05:50:56;27.10;49.30
13521;DHT22;6832;51.186;3.236;2023-06-24T05:53:23;27.10;49.30
13521;DHT22;6832;51.186;3.236;2023-06-24T05:55:50;27.10;49.30
13521;DHT22;6832;51.186;3.236;2023-06-24T05:58:17;27.10;49.40
13521;DHT22;6832;51.186;3.236;2023-06-24T06:00:44;27.10;49.30
13521;DHT22;6832;51.186;3.236;2023-06-24T06:03:12;27.10;49.40
13521;DHT22;6832;51.186;3.236;2023-06-24T06:05:39;27.10;49.40
13521;DHT22;6832;51.186;3.236;2023-06-24T06:08:05;27.20;49.40
13521;DHT22;6832;51.186;3.236;2023-06-24T06:10:32;27.20;49.50
13521;DHT22;6832;51.186;3.236;2023-06-24T06:12:59;27.10;49.40
13521;DHT22;6832;51.186;3.236;2023-06-24T06:15:26;27.20;50.20
13521;DHT22;6832;51.186;3.236;2023-06-24T06:17:53;27.20;49.60
13521;DHT22;6832;51.186;3.236;2023-06-24T06:20:21;27.20;49.60
13521;DHT22;6832;51.186;3.236;2023-06-24T06:22:48;27.20;49.60
13521;DHT22;6832;51.186;3.236;2023-06-24T06:25:16;27.20;49.60
13521;DHT22;6832;51.186;3.236;2023-06-24T06:27:43;27.20;49.70
13521;DHT22;6832;51.186;3.236;2023-06-24T06:30:11;27.30;49.90
13521;DHT22;6832;51.186;3.236;2023-06-24T06:32:38;27.30;49.90
13521;DHT22;6832;51.186;3.236;2023-06-24T06:35:06;27.30;49.90
13521;DHT22;6832;51.186;3.236;2023-06-24T06:37:34;27.30;49.90
13521;DHT22;6832;51.186;3.236;2023-06-24T06:40:02;27.30;49.90
13521;DHT22;6832;51.186;3.236;2023-06-24T06:42:29;27.30;49.90
13521;DHT22;6832;51.186;3.236;2023-06-24T06:44:56;27.40;49.90
13521;DHT22;6832;51.186;3.236;2023-06-24T06:47:23;27.40;49.90
13521;DHT22;6832;51.186;3.236;2023-06-24T06:49:50;27.40;49.90
13521;DHT22;6832;51.186;3.236;2023-06-24T06:52:16;27.40;50.00
13521;DHT22;6832;51.186;3.236;2023-06-24T06:54:45;27.40;50.00
13521;DHT22;6832;51.186;3.236;2023-06-24T06:57:11;27.40;50.00
13521;DHT22;6832;51.186;3.236;2023-06-24T06:59:38;27.40;50.00
13521;DHT22;6832;51.186;3.236;2023-06-24T07:02:06;27.50;50.00
13521;DHT22;6832;51.186;3.236;2023-06-24T07:04:32;27.50;50.00
13521;DHT22;6832;51.186;3.236;2023-06-24T07:06:59;27.50;50.00
13521;DHT22;6832;51.186;3.236;2023-06-24T07:09:26;27.50;50.10
13521;DHT22;6832;51.186;3.236;2023-06-24T07:11:55;27.50;50.00
13521;DHT22;6832;51.186;3.236;2023-06-24T07:14:21;27.50;50.10
13521;DHT22;6832;51.186;3.236;2023-06-24T07:16:48;27.50;50.30
13521;DHT22;6832;51.186;3.236;2023-06-24T07:19:15;27.60;50.20
13521;DHT22;6832;51.186;3.236;2023-06-24T07:21:42;27.60;50.20
13521;DHT22;6832;51.186;3.236;2023-06-24T07:24:09;27.60;50.40
13521;DHT22;6832;51.186;3.236;2023-06-24T07:26:36;27.60;50.30
13521;DHT22;6832;51.186;3.236;2023-06-24T07:29:07;27.60;50.30
13521;DHT22;6832;51.186;3.236;2023-06-24T07:31:34;27.60;50.30
13521;DHT22;6832;51.186;3.236;2023-06-24T07:34:02;27.70;50.40
13521;DHT22;6832;51.186;3.236;2023-06-24T07:36:28;27.70;50.40
13521;DHT22;6832;51.186;3.236;2023-06-24T07:38:55;27.70;50.40
13521;DHT22;6832;51.186;3.236;2023-06-24T07:41:22;27.80;50.60
13521;DHT22;6832;51.186;3.236;2023-06-24T07:43:49;27.80;50.60
13521;DHT22;6832;51.186;3.236;2023-06-24T07:46:17;27.80;50.60
13521;DHT22;6832;51.186;3.236;2023-06-24T07:48:44;27.80;50.60
13521;DHT22;6832;51.186;3.236;2023-06-24T07:51:11;27.80;50.50
13521;DHT22;6832;51.186;3.236;2023-06-24T07:53:38;27.80;50.40
13521;DHT22;6832;51.186;3.236;2023-06-24T07:56:05;27.90;50.60
13521;DHT22;6832;51.186;3.236;2023-06-24T07:58:33;27.90;50.60
13521;DHT22;6832;51.186;3.236;2023-06-24T08:01:00;27.90;50.60
13521;DHT22;6832;51.186;3.236;2023-06-24T08:03:28;27.90;50.60
13521;DHT22;6832;51.186;3.236;2023-06-24T08:05:55;27.90;50.60
13521;DHT22;6832;51.186;3.236;2023-06-24T08:08:23;27.90;50.70
13521;DHT22;6832;51.186;3.236;2023-06-24T08:10:49;28.00;50.70
13521;DHT22;6832;51.186;3.236;2023-06-24T08:13:19;28.00;50.70
13521;DHT22;6832;51.186;3.236;2023-06-24T08:15:46;28.00;50.70
13521;DHT22;6832;51.186;3.236;2023-06-24T08:18:13;28.00;50.70
13521;DHT22;6832;51.186;3.236;2023-06-24T08:20:41;28.00;50.70
13521;DHT22;6832;51.186;3.236;2023-06-24T08:23:08;28.10;50.80
13521;DHT22;6832;51.186;3.236;2023-06-24T08:25:35;28.00;50.70
13521;DHT22;6832;51.186;3.236;2023-06-24T08:28:02;28.10;50.80
13521;DHT22;6832;51.186;3.236;2023-06-24T08:30:29;28.10;50.80
13521;DHT22;6832;51.186;3.236;2023-06-24T08:32:57;28.10;50.80
13521;DHT22;6832;51.186;3.236;2023-06-24T08:35:24;28.10;50.80
13521;DHT22;6832;51.186;3.236;2023-06-24T08:37:53;28.10;50.80
13521;DHT22;6832;51.186;3.236;2023-06-24T08:40:20;28.10;50.80
13521;DHT22;6832;51.186;3.236;2023-06-24T08:42:47;28.10;50.80
13521;DHT22;6832;51.186;3.236;2023-06-24T08:45:13;28.20;50.80
13521;DHT22;6832;51.186;3.236;2023-06-24T08:47:40;28.10;50.80
13521;DHT22;6832;51.186;3.236;2023-06-24T08:50:11;28.10;50.80
13521;DHT22;6832;51.186;3.236;2023-06-24T08:52:42;28.20;50.80
13521;DHT22;6832;51.186;3.236;2023-06-24T08:55:13;28.20;50.90
13521;DHT22;6832;51.186;3.236;2023-06-24T08:57:42;28.10;50.80
13521;DHT22;6832;51.186;3.236;2023-06-24T09:00:09;28.20;50.90
13521;DHT22;6832;51.186;3.236;2023-06-24T09:02:37;28.20;50.90
13521;DHT22;6832;51.186;3.236;2023-06-24T09:05:04;28.20;50.90
13521;DHT22;6832;51.186;3.236;2023-06-24T09:07:31;28.20;50.90
13521;DHT22;6832;51.186;3.236;2023-06-24T09:09:58;28.20;51.00
13521;DHT22;6832;51.186;3.236;2023-06-24T09:12:27;28.20;51.00
13521;DHT22;6832;51.186;3.236;2023-06-24T09:14:54;28.20;51.00
13521;DHT22;6832;51.186;3.236;2023-06-24T09:17:21;28.20;51.10
13521;DHT22;6832;51.186;3.236;2023-06-24T09:19:48;28.20;51.10
13521;DHT22;6832;51.186;3.236;2023-06-24T09:22:16;28.20;51.10
13521;DHT22;6832;51.186;3.236;2023-06-24T09:24:44;28.20;51.10
13521;DHT22;6832;51.186;3.236;2023-06-24T09:27:13;28.20;51.00
13521;DHT22;6832;51.186;3.236;2023-06-24T09:29:42;28.20;51.00
13521;DHT22;6832;51.186;3.236;2023-06-24T09:32:10;28.20;51.00
13521;DHT22;6832;51.186;3.236;2023-06-24T09:34:37;28.20;51.10
13521;DHT22;6832;51.186;3.236;2023-06-24T09:37:04;28.20;51.10
13521;DHT22;6832;51.186;3.236;2023-06-24T09:39:36;28.20;51.10
13521;DHT22;6832;51.186;3.236;2023-06-24T09:42:05;28.20;51.30
13521;DHT22;6832;51.186;3.236;2023-06-24T09:44:33;28.20;51.30
13521;DHT22;6832;51.186;3.236;2023-06-24T09:47:01;28.20;51.20
13521;DHT22;6832;51.186;3.236;2023-06-24T09:49:29;28.30;51.30
13521;DHT22;6832;51.186;3.236;2023-06-24T09:51:57;28.30;51.30
13521;DHT22;6832;51.186;3.236;2023-06-24T09:54:26;28.30;51.30
13521;DHT22;6832;51.186;3.236;2023-06-24T09:56:55;28.30;51.30
13521;DHT22;6832;51.186;3.236;2023-06-24T09:59:27;28.30;51.30
13521;DHT22;6832;51.186;3.236;2023-06-24T10:01:55;28.30;51.30
13521;DHT22;6832;51.186;3.236;2023-06-24T10:04:26;28.30;51.20
13521;DHT22;6832;51.186;3.236;2023-06-24T10:06:54;28.30;51.20
13521;DHT22;6832;51.186;3.236;2023-06-24T10:09:21;28.30;51.20
13521;DHT22;6832;51.186;3.236;2023-06-24T10:11:48;28.40;52.00
13521;DHT22;6832;51.186;3.236;2023-06-24T10:14:15;28.30;51.30
13521;DHT22;6832;51.186;3.236;2023-06-24T10:16:42;28.30;51.30
13521;DHT22;6832;51.186;3.236;2023-06-24T10:19:09;28.40;51.30
13521;DHT22;6832;51.186;3.236;2023-06-24T10:21:49;28.40;51.40
13521;DHT22;6832;51.186;3.236;2023-06-24T10:24:28;28.40;51.50
13521;DHT22;6832;51.186;3.236;2023-06-24T10:27:01;28.40;51.50
13521;DHT22;6832;51.186;3.236;2023-06-24T10:29:35;28.40;51.40
13521;DHT22;6832;51.186;3.236;2023-06-24T10:32:06;28.40;51.30
13521;DHT22;6832;51.186;3.236;2023-06-24T10:34:38;28.40;51.30
13521;DHT22;6832;51.186;3.236;2023-06-24T10:37:09;28.40;51.30
13521;DHT22;6832;51.186;3.236;2023-06-24T10:39:40;28.40;51.30
13521;DHT22;6832;51.186;3.236;2023-06-24T10:42:27;28.40;51.40
13521;DHT22;6832;51.186;3.236;2023-06-24T10:44:55;28.40;51.50
13521;DHT22;6832;51.186;3.236;2023-06-24T10:47:22;28.40;51.30
13521;DHT22;6832;51.186;3.236;2023-06-24T10:49:50;28.40;51.40
13521;DHT22;6832;51.186;3.236;2023-06-24T10:52:20;28.50;51.50
13521;DHT22;6832;51.186;3.236;2023-06-24T10:54:48;28.50;51.60
13521;DHT22;6832;51.186;3.236;2023-06-24T10:57:15;28.50;51.60
13521;DHT22;6832;51.186;3.236;2023-06-24T10:59:47;28.50;51.60
13521;DHT22;6832;51.186;3.236;2023-06-24T11:02:15;28.60;52.40
13521;DHT22;6832;51.186;3.236;2023-06-24T11:04:43;28.60;51.90
13521;DHT22;6832;51.186;3.236;2023-06-24T11:07:10;28.60;52.00
13521;DHT22;6832;51.186;3.236;2023-06-24T11:09:40;28.60;52.00
13521;DHT22;6832;51.186;3.236;2023-06-24T11:12:09;28.60;52.00
13521;DHT22;6832;51.186;3.236;2023-06-24T11:14:39;28.70;52.10
13521;DHT22;6832;51.186;3.236;2023-06-24T11:17:06;28.70;52.10
13521;DHT22;6832;51.186;3.236;2023-06-24T11:19:33;28.70;52.10
13521;DHT22;6832;51.186;3.236;2023-06-24T11:22:05;28.80;52.20
13521;DHT22;6832;51.186;3.236;2023-06-24T11:24:32;28.80;52.80
13521;DHT22;6832;51.186;3.236;2023-06-24T11:27:00;28.80;52.20
13521;DHT22;6832;51.186;3.236;2023-06-24T11:29:29;28.90;52.20
13521;DHT22;6832;51.186;3.236;2023-06-24T11:31:56;28.90;52.30
13521;DHT22;6832;51.186;3.236;2023-06-24T11:34:23;29.00;52.30
13521;DHT22;6832;51.186;3.236;2023-06-24T11:36:50;29.00;52.30
13521;DHT22;6832;51.186;3.236;2023-06-24T11:39:24;29.00;52.30
13521;DHT22;6832;51.186;3.236;2023-06-24T11:41:51;29.10;52.40
13521;DHT22;6832;51.186;3.236;2023-06-24T11:44:21;29.10;52.20
13521;DHT22;6832;51.186;3.236;2023-06-24T11:46:47;29.10;52.20
13521;DHT22;6832;51.186;3.236;2023-06-24T11:49:15;29.20;52.30
13521;DHT22;6832;51.186;3.236;2023-06-24T11:51:47;29.20;52.20
13521;DHT22;6832;51.186;3.236;2023-06-24T11:54:15;29.20;52.30
13521;DHT22;6832;51.186;3.236;2023-06-24T11:56:43;29.30;52.20
13521;DHT22;6832;51.186;3.236;2023-06-24T11:59:17;29.30;52.20
13521;DHT22;6832;51.186;3.236;2023-06-24T12:01:52;29.40;52.40
13521;DHT22;6832;51.186;3.236;2023-06-24T12:04:20;29.40;52.30
13521;DHT22;6832;51.186;3.236;2023-06-24T12:06:47;29.40;52.20
13521;DHT22;6832;51.186;3.236;2023-06-24T12:09:14;29.40;52.20
13521;DHT22;6832;51.186;3.236;2023-06-24T12:11:41;29.50;52.30
13521;DHT22;6832;51.186;3.236;2023-06-24T12:14:08;29.50;52.20
13521;DHT22;6832;51.186;3.236;2023-06-24T12:16:35;29.50;52.20
13521;DHT22;6832;51.186;3.236;2023-06-24T12:19:03;29.60;52.30
13521;DHT22;6832;51.186;3.236;2023-06-24T12:21:30;29.60;52.30
13521;DHT22;6832;51.186;3.236;2023-06-24T12:23:57;29.60;52.20
13521;DHT22;6832;51.186;3.236;2023-06-24T12:26:24;29.60;52.30
13521;DHT22;6832;51.186;3.236;2023-06-24T12:28:53;29.70;52.90
13521;DHT22;6832;51.186;3.236;2023-06-24T12:31:20;29.70;52.30
13521;DHT22;6832;51.186;3.236;2023-06-24T12:33:47;29.80;52.40
13521;DHT22;6832;51.186;3.236;2023-06-24T12:36:15;29.80;52.40
13521;DHT22;6832;51.186;3.236;2023-06-24T12:38:42;29.80;52.40
13521;DHT22;6832;51.186;3.236;2023-06-24T12:41:09;29.80;52.40
13521;DHT22;6832;51.186;3.236;2023-06-24T12:43:36;29.90;52.40
13521;DHT22;6832;51.186;3.236;2023-06-24T12:46:02;29.90;52.40
13521;DHT22;6832;51.186;3.236;2023-06-24T12:48:29;29.90;52.30
13521;DHT22;6832;51.186;3.236;2023-06-24T12:50:56;30.00;52.40
13521;DHT22;6832;51.186;3.236;2023-06-24T12:53:24;30.00;52.40
13521;DHT22;6832;51.186;3.236;2023-06-24T12:55:51;30.00;52.40
13521;DHT22;6832;51.186;3.236;2023-06-24T12:58:23;30.00;53.00
13521;DHT22;6832;51.186;3.236;2023-06-24T13:00:50;30.10;52.40
13521;DHT22;6832;51.186;3.236;2023-06-24T13:03:17;30.10;52.40
13521;DHT22;6832;51.186;3.236;2023-06-24T13:05:44;30.10;52.40
13521;DHT22;6832;51.186;3.236;2023-06-24T13:08:10;30.10;52.30
13521;DHT22;6832;51.186;3.236;2023-06-24T13:10:39;30.20;52.30
13521;DHT22;6832;51.186;3.236;2023-06-24T13:13:06;30.20;52.30
13521;DHT22;6832;51.186;3.236;2023-06-24T13:15:33;30.20;52.30
13521;DHT22;6832;51.186;3.236;2023-06-24T13:18:00;30.30;52.30
13521;DHT22;6832;51.186;3.236;2023-06-24T13:20:28;30.30;52.30
13521;DHT22;6832;51.186;3.236;2023-06-24T13:22:55;30.30;52.30
13521;DHT22;6832;51.186;3.236;2023-06-24T13:25:22;30.30;52.20
13521;DHT22;6832;51.186;3.236;2023-06-24T13:27:50;30.30;52.20
13521;DHT22;6832;51.186;3.236;2023-06-24T13:30:17;30.30;52.20
13521;DHT22;6832;51.186;3.236;2023-06-24T13:32:44;30.40;52.20
13521;DHT22;6832;51.186;3.236;2023-06-24T13:35:11;30.40;52.20
13521;DHT22;6832;51.186;3.236;2023-06-24T13:37:38;30.40;52.20
13521;DHT22;6832;51.186;3.236;2023-06-24T13:40:06;30.40;52.20
13521;DHT22;6832;51.186;3.236;2023-06-24T13:42:33;30.50;52.30
13521;DHT22;6832;51.186;3.236;2023-06-24T13:45:02;30.50;52.20
13521;DHT22;6832;51.186;3.236;2023-06-24T13:47:29;30.50;52.20
13521;DHT22;6832;51.186;3.236;2023-06-24T13:49:56;30.50;52.20
13521;DHT22;6832;51.186;3.236;2023-06-24T13:52:24;30.50;52.20
13521;DHT22;6832;51.186;3.236;2023-06-24T13:54:52;30.50;52.80
13521;DHT22;6832;51.186;3.236;2023-06-24T13:57:19;30.50;52.20
13521;DHT22;6832;51.186;3.236;2023-06-24T13:59:46;30.60;52.20
13521;DHT22;6832;51.186;3.236;2023-06-24T14:02:14;30.60;52.20
13521;DHT22;6832;51.186;3.236;2023-06-24T14:04:41;30.60;52.20
13521;DHT22;6832;51.186;3.236;2023-06-24T14:07:08;30.60;52.10
13521;DHT22;6832;51.186;3.236;2023-06-24T14:09:35;30.60;52.10
13521;DHT22;6832;51.186;3.236;2023-06-24T14:12:02;30.60;52.10
13521;DHT22;6832;51.186;3.236;2023-06-24T14:14:29;30.60;52.10
13521;DHT22;6832;51.186;3.236;2023-06-24T14:16:56;30.70;52.10
13521;DHT22;6832;51.186;3.236;2023-06-24T14:19:24;30.60;52.00
13521;DHT22;6832;51.186;3.236;2023-06-24T14:21:51;30.70;52.10
13521;DHT22;6832;51.186;3.236;2023-06-24T14:24:20;30.70;52.10
13521;DHT22;6832;51.186;3.236;2023-06-24T14:26:47;30.70;52.00
13521;DHT22;6832;51.186;3.236;2023-06-24T14:29:15;30.70;52.00
13521;DHT22;6832;51.186;3.236;2023-06-24T14:31:42;30.70;52.00
13521;DHT22;6832;51.186;3.236;2023-06-24T14:34:09;30.70;52.10
13521;DHT22;6832;51.186;3.236;2023-06-24T14:36:37;30.70;52.00
13521;DHT22;6832;51.186;3.236;2023-06-24T14:39:04;30.70;52.00
13521;DHT22;6832;51.186;3.236;2023-06-24T14:41:31;30.70;52.00
13521;DHT22;6832;51.186;3.236;2023-06-24T14:43:58;30.70;52.00
13521;DHT22;6832;51.186;3.236;2023-06-24T14:46:25;30.70;52.00
13521;DHT22;6832;51.186;3.236;2023-06-24T14:48:51;30.70;52.00
13521;DHT22;6832;51.186;3.236;2023-06-24T14:51:18;30.70;52.00
13521;DHT22;6832;51.186;3.236;2023-06-24T14:53:47;30.70;52.00
13521;DHT22;6832;51.186;3.236;2023-06-24T14:56:13;30.70;52.00
13521;DHT22;6832;51.186;3.236;2023-06-24T14:58:41;30.70;52.00
13521;DHT22;6832;51.186;3.236;2023-06-24T15:01:08;30.70;52.00
13521;DHT22;6832;51.186;3.236;2023-06-24T15:03:34;30.70;52.00
13521;DHT22;6832;51.186;3.236;2023-06-24T15:06:01;30.70;52.00
13521;DHT22;6832;51.186;3.236;2023-06-24T15:08:28;30.70;52.00
13521;DHT22;6832;51.186;3.236;2023-06-24T15:10:56;30.70;52.00
13521;DHT22;6832;51.186;3.236;2023-06-24T15:13:23;30.70;52.00
13521;DHT22;6832;51.186;3.236;2023-06-24T15:15:50;30.70;52.00
13521;DHT22;6832;51.186;3.236;2023-06-24T15:18:21;30.70;52.00
13521;DHT22;6832;51.186;3.236;2023-06-24T15:20:48;30.70;52.00
13521;DHT22;6832;51.186;3.236;2023-06-24T15:23:15;30.70;52.00
13521;DHT22;6832;51.186;3.236;2023-06-24T15:25:42;30.70;52.00
13521;DHT22;6832;51.186;3.236;2023-06-24T15:28:10;30.70;52.00
13521;DHT22;6832;51.186;3.236;2023-06-24T15:30:37;30.70;52.00
13521;DHT22;6832;51.186;3.236;2023-06-24T15:33:03;30.70;52.00
13521;DHT22;6832;51.186;3.236;2023-06-24T15:35:30;30.70;52.00
13521;DHT22;6832;51.186;3.236;2023-06-24T15:37:57;30.70;52.00
13521;DHT22;6832;51.186;3.236;2023-06-24T15:40:24;30.70;52.00
13521;DHT22;6832;51.186;3.236;2023-06-24T15:42:51;30.70;52.00
13521;DHT22;6832;51.186;3.236;2023-06-24T15:45:20;30.70;52.00
13521;DHT22;6832;51.186;3.236;2023-06-24T15:47:47;30.70;52.00
13521;DHT22;6832;51.186;3.236;2023-06-24T15:50:14;30.70;52.10
13521;DHT22;6832;51.186;3.236;2023-06-24T15:52:41;30.70;52.10
13521;DHT22;6832;51.186;3.236;2023-06-24T15:55:09;30.70;52.10